createdAt,value
2023-01-21T00:01:09.903Z,19.25
2023-01-21T00:03:37.641Z,23.85
2023-01-21T00:06:05.843Z,21.27
2023-01-21T00:08:33.026Z,22.75
2023-01-21T00:13:48.951Z,20.15
2023-01-21T00:16:16.070Z,22.02
2023-01-21T00:18:43.136Z,23.80
2023-01-21T00:21:10.534Z,23.88
2023-01-21T00:23:37.512Z,22.02
2023-01-21T00:26:06.426Z,22.90
2023-01-21T00:28:35.235Z,24.42
2023-01-21T00:31:05.472Z,20.80
2023-01-21T00:33:33.983Z,21.40
2023-01-21T00:36:02.332Z,20.80
2023-01-21T00:38:30.692Z,21.50
2023-01-21T00:41:06.233Z,24.27
2023-01-21T00:43:33.849Z,21.60
2023-01-21T00:46:01.002Z,21.42
2023-01-21T00:48:31.199Z,21.40
2023-01-21T00:51:00.854Z,25.33
2023-01-21T00:53:29.695Z,23.17
2023-01-21T00:56:07.900Z,21.80
2023-01-21T00:58:35.262Z,22.88
2023-01-21T01:01:12.189Z,21.83
2023-01-21T01:03:39.832Z,25.52
2023-01-21T01:06:10.240Z,20.90
2023-01-21T01:08:37.505Z,23.17
2023-01-21T01:11:04.818Z,23.00
2023-01-21T01:13:33.026Z,22.42
2023-01-21T01:16:00.391Z,21.20
2023-01-21T01:18:29.228Z,23.15
2023-01-21T01:20:56.685Z,24.25
2023-01-21T01:23:24.166Z,27.05
2023-01-21T01:26:05.678Z,24.27
2023-01-21T01:28:34.047Z,25.55
2023-01-21T01:31:03.631Z,25.52
2023-01-21T01:33:30.927Z,24.50
2023-01-21T01:36:03.048Z,24.13
2023-01-21T01:38:30.918Z,26.10
2023-01-21T01:40:58.149Z,26.27
2023-01-21T01:43:45.295Z,27.10
2023-01-21T01:46:12.341Z,29.10
2023-01-21T01:48:40.084Z,30.70
2023-01-21T01:51:08.031Z,29.52
2023-01-21T01:53:37.212Z,28.80
2023-01-21T01:56:04.750Z,31.00
2023-01-21T01:58:32.302Z,28.73
2023-01-21T02:01:00.309Z,29.73
2023-01-21T02:03:45.014Z,31.65
2023-01-21T02:06:13.947Z,30.42
2023-01-21T02:08:42.579Z,30.33
2023-01-21T02:11:14.346Z,32.60
2023-01-21T02:13:44.830Z,29.73
2023-01-21T02:16:20.816Z,27.23
2023-01-21T02:18:56.496Z,31.92
2023-01-21T02:21:54.529Z,28.95
2023-01-21T02:24:42.787Z,30.50
2023-01-21T02:27:30.018Z,30.95
2023-01-21T02:30:53.354Z,28.77
2023-01-21T02:33:31.647Z,29.95
2023-01-21T02:36:10.233Z,26.83
2023-01-21T02:38:46.754Z,28.98
2023-01-21T02:41:25.504Z,26.55
2023-01-21T02:44:08.001Z,27.05
2023-01-21T02:46:45.387Z,34.22
2023-01-21T02:49:15.610Z,31.48
2023-01-21T02:51:47.405Z,31.40
2023-01-21T02:54:16.557Z,31.30
2023-01-21T02:56:44.241Z,31.77
2023-01-21T02:59:11.920Z,30.80
2023-01-21T03:01:44.639Z,31.33
2023-01-21T03:04:14.530Z,33.67
2023-01-21T03:07:22.439Z,31.00
2023-01-21T03:09:49.760Z,32.28
2023-01-21T03:12:28.908Z,32.03
2023-01-21T03:15:19.065Z,37.65
2023-01-21T03:17:54.586Z,32.40
2023-01-21T03:20:34.319Z,35.95
2023-01-21T03:23:07.785Z,33.15
2023-01-21T03:25:36.731Z,31.77
2023-01-21T03:28:09.260Z,33.90
2023-01-21T03:30:40.351Z,36.45
2023-01-21T03:33:09.360Z,34.33
2023-01-21T03:35:42.248Z,35.30
2023-01-21T03:38:18.173Z,34.67
2023-01-21T03:41:19.622Z,35.95
2023-01-21T03:43:46.983Z,34.40
2023-01-21T03:46:32.863Z,32.55
2023-01-21T03:49:22.793Z,35.63
2023-01-21T03:51:53.828Z,37.75
2023-01-21T03:54:20.960Z,31.05
2023-01-21T03:56:47.889Z,38.72
2023-01-21T03:59:14.967Z,31.77
2023-01-21T04:01:41.914Z,33.85
2023-01-21T04:04:10.072Z,34.75
2023-01-21T04:06:37.427Z,35.97
2023-01-21T04:09:05.803Z,35.03
2023-01-21T04:11:33.944Z,33.55
2023-01-21T04:14:01.094Z,34.72
2023-01-21T04:16:29.119Z,36.65
2023-01-21T04:18:56.270Z,39.70
2023-01-21T04:21:23.455Z,42.83
2023-01-21T04:23:50.495Z,37.63
2023-01-21T04:26:17.567Z,36.72
2023-01-21T04:28:44.605Z,33.78
2023-01-21T04:31:11.553Z,36.75
2023-01-21T04:33:38.614Z,31.08
2023-01-21T04:36:05.945Z,37.88
2023-01-21T04:38:33.101Z,35.25
2023-01-21T04:41:00.237Z,38.95
2023-01-21T04:43:27.236Z,34.00
2023-01-21T04:45:54.244Z,36.00
2023-01-21T04:48:21.316Z,38.55
2023-01-21T04:50:48.338Z,35.35
2023-01-21T04:53:15.423Z,37.40
2023-01-21T04:55:42.376Z,37.00
2023-01-21T04:58:09.281Z,36.10
2023-01-21T05:00:36.318Z,39.13
2023-01-21T05:03:03.322Z,38.60
2023-01-21T05:05:31.135Z,36.72
2023-01-21T05:07:58.232Z,38.08
2023-01-21T05:10:25.379Z,36.55
2023-01-21T05:13:02.225Z,37.25
2023-01-21T05:15:29.320Z,35.53
2023-01-21T05:17:58.455Z,41.13
2023-01-21T05:20:25.896Z,36.22
2023-01-21T05:22:52.860Z,42.10
2023-01-21T05:25:19.987Z,36.25
2023-01-21T05:27:52.379Z,37.60
2023-01-21T05:30:19.402Z,37.15
2023-01-21T05:32:53.646Z,39.42
2023-01-21T05:35:24.244Z,38.33
2023-01-21T05:37:51.399Z,39.13
2023-01-21T05:40:19.479Z,38.00
2023-01-21T05:42:47.194Z,41.95
2023-01-21T05:45:14.855Z,35.17
2023-01-21T05:47:42.205Z,39.08
2023-01-21T05:50:11.069Z,39.90
2023-01-21T05:52:38.180Z,35.40
2023-01-21T05:55:05.966Z,42.53
2023-01-21T05:57:33.189Z,40.00
2023-01-21T06:00:00.283Z,39.22
2023-01-21T06:02:27.450Z,40.70
2023-01-21T06:04:54.410Z,43.25
2023-01-21T06:07:21.283Z,41.55
2023-01-21T06:09:48.254Z,43.65
2023-01-21T06:12:15.175Z,43.38
2023-01-21T06:14:42.076Z,40.28
2023-01-21T06:17:09.020Z,45.50
2023-01-21T06:19:35.939Z,42.80
2023-01-21T06:22:02.915Z,40.20
2023-01-21T06:24:29.866Z,39.53
2023-01-21T06:26:56.829Z,45.20
2023-01-21T06:29:23.808Z,38.83
2023-01-21T06:31:50.890Z,44.17
2023-01-21T06:34:18.019Z,39.47
2023-01-21T06:36:44.981Z,44.50
2023-01-21T06:39:12.092Z,43.17
2023-01-21T06:41:41.450Z,40.65
2023-01-21T06:44:08.648Z,43.30
2023-01-21T06:46:35.795Z,43.95
2023-01-21T06:49:02.816Z,42.95
2023-01-21T06:51:29.837Z,46.75
2023-01-21T06:53:56.793Z,41.47
2023-01-21T06:56:23.771Z,43.58
2023-01-21T06:58:50.707Z,45.28
2023-01-21T07:01:17.701Z,45.70
2023-01-21T07:03:44.595Z,41.90
2023-01-21T07:06:11.496Z,42.40
2023-01-21T07:08:38.410Z,46.83
2023-01-21T07:11:05.548Z,41.33
2023-01-21T07:13:32.483Z,43.25
2023-01-21T07:16:01.055Z,44.17
2023-01-21T07:18:28.241Z,43.75
2023-01-21T07:20:56.013Z,41.15
2023-01-21T07:23:22.985Z,41.15
2023-01-21T07:25:50.001Z,39.92
2023-01-21T07:28:17.241Z,45.25
2023-01-21T07:30:44.309Z,40.60
2023-01-21T07:33:11.678Z,44.80
2023-01-21T07:35:38.693Z,40.72
2023-01-21T07:38:05.662Z,41.10
2023-01-21T07:40:32.620Z,39.38
2023-01-21T07:42:59.576Z,43.95
2023-01-21T07:45:26.751Z,46.22
2023-01-21T07:47:53.708Z,41.22
2023-01-21T07:50:20.722Z,43.38
2023-01-21T07:52:47.628Z,42.85
2023-01-21T07:55:14.883Z,41.42
2023-01-21T07:57:42.013Z,43.08
2023-01-21T08:00:09.541Z,45.17
2023-01-21T08:02:36.502Z,40.42
2023-01-21T08:05:03.471Z,45.08
2023-01-21T08:07:30.461Z,44.08
2023-01-21T08:09:57.509Z,42.58
2023-01-21T08:12:27.060Z,44.15
2023-01-21T08:14:54.407Z,45.83
2023-01-21T08:17:21.428Z,45.67
2023-01-21T08:19:48.308Z,43.55
2023-01-21T08:22:15.197Z,43.28
2023-01-21T08:24:42.149Z,43.42
2023-01-21T08:27:09.096Z,52.67
2023-01-21T08:29:36.074Z,46.55
2023-01-21T08:32:03.065Z,41.75
2023-01-21T08:34:30.660Z,45.85
2023-01-21T08:36:57.559Z,44.30
2023-01-21T08:39:24.479Z,44.92
2023-01-21T08:41:51.632Z,41.88
2023-01-21T08:48:10.127Z,47.33
2023-01-21T08:50:37.194Z,41.95
2023-01-21T08:53:04.148Z,48.35
2023-01-21T08:55:31.114Z,43.03
2023-01-21T08:57:58.545Z,48.83
2023-01-21T09:00:25.838Z,47.55
2023-01-21T09:02:53.228Z,47.92
2023-01-21T09:05:20.674Z,43.33
2023-01-21T09:07:47.631Z,44.33
2023-01-21T09:10:37.838Z,44.38
2023-01-21T09:13:10.428Z,47.47
2023-01-21T09:15:42.195Z,42.63
2023-01-21T09:18:09.549Z,45.15
2023-01-21T09:20:37.071Z,45.22
2023-01-21T09:23:24.157Z,42.50
2023-01-21T09:25:55.664Z,47.72
2023-01-21T09:28:23.627Z,43.42
2023-01-21T09:30:55.530Z,45.78
2023-01-21T09:33:22.480Z,44.00
2023-01-21T09:35:57.165Z,44.13
2023-01-21T09:38:25.384Z,44.60
2023-01-21T09:40:53.726Z,44.03
2023-01-21T09:43:37.399Z,43.22
2023-01-21T09:46:07.540Z,46.13
2023-01-21T09:48:42.625Z,44.38
2023-01-21T09:51:25.397Z,47.92
2023-01-21T09:53:57.844Z,42.63
2023-01-21T09:56:24.794Z,45.45
2023-01-21T09:59:10.475Z,43.38
2023-01-21T10:01:40.433Z,45.88
2023-01-21T10:04:19.341Z,43.20
2023-01-21T10:06:49.139Z,50.33
2023-01-21T10:09:54.417Z,45.85
2023-01-21T10:13:04.377Z,45.53
2023-01-21T10:15:46.240Z,45.88
2023-01-21T10:18:27.101Z,44.38
2023-01-21T10:21:10.766Z,46.40
2023-01-21T10:23:49.786Z,46.75
2023-01-21T10:26:16.893Z,43.65
2023-01-21T10:28:55.605Z,47.20
2023-01-21T10:31:26.947Z,42.63
2023-01-21T10:33:54.813Z,46.20
2023-01-21T10:36:40.633Z,43.88
2023-01-21T10:39:36.759Z,44.22
2023-01-21T10:42:12.975Z,45.20
2023-01-21T10:44:51.021Z,42.97
2023-01-21T10:47:18.089Z,42.58
2023-01-21T10:50:11.053Z,42.45
2023-01-21T10:52:50.764Z,44.80
2023-01-21T10:55:36.458Z,40.63
2023-01-21T10:58:25.626Z,47.08
2023-01-21T11:00:53.936Z,43.80
2023-01-21T11:03:42.376Z,43.35
2023-01-21T11:06:12.586Z,44.95
2023-01-21T11:08:43.553Z,51.33
2023-01-21T11:11:11.468Z,45.58
2023-01-21T11:13:41.281Z,45.00
2023-01-21T11:16:08.898Z,42.30
2023-01-21T11:18:39.762Z,43.85
2023-01-21T11:21:21.109Z,45.05
2023-01-21T11:24:02.257Z,42.92
2023-01-21T11:26:29.153Z,47.20
2023-01-21T11:29:12.667Z,44.78
2023-01-21T11:31:41.218Z,42.45
2023-01-21T11:34:14.789Z,46.80
2023-01-21T11:36:55.775Z,44.65
2023-01-21T11:39:28.518Z,47.95
2023-01-21T11:41:57.974Z,40.97
2023-01-21T11:44:25.372Z,50.67
2023-01-21T11:46:53.010Z,47.95
2023-01-21T11:49:19.897Z,46.92
2023-01-21T11:51:47.594Z,47.30
2023-01-21T11:54:23.124Z,44.35
2023-01-21T11:56:56.948Z,46.47
2023-01-21T11:59:37.388Z,46.70
2023-01-21T12:02:12.648Z,46.28
2023-01-21T12:04:51.792Z,45.28
2023-01-21T12:07:26.844Z,48.10
2023-01-21T12:10:09.890Z,47.88
2023-01-21T12:12:59.793Z,49.72
2023-01-21T12:15:50.826Z,46.25
2023-01-21T12:18:30.466Z,48.95
2023-01-21T12:21:10.852Z,50.63
2023-01-21T12:24:02.066Z,55.47
2023-01-21T12:26:41.473Z,52.60
2023-01-21T12:29:29.402Z,52.83
2023-01-21T12:32:05.134Z,58.17
2023-01-21T12:34:55.810Z,56.13
2023-01-21T12:37:32.938Z,53.60
2023-01-21T12:40:09.457Z,55.88
2023-01-21T12:42:41.178Z,56.35
2023-01-21T12:45:14.989Z,55.97
2023-01-21T12:47:48.713Z,58.70
2023-01-21T12:50:39.650Z,57.83
2023-01-21T12:53:09.758Z,59.08
2023-01-21T12:56:12.290Z,53.75
2023-01-21T12:58:50.751Z,59.22
2023-01-21T13:01:48.520Z,60.45
2023-01-21T13:04:33.443Z,57.13
2023-01-21T13:07:17.108Z,54.10
2023-01-21T13:09:47.055Z,66.07
2023-01-21T13:12:23.602Z,55.30
2023-01-21T13:15:10.874Z,54.85
2023-01-21T13:17:43.200Z,57.72
2023-01-21T13:20:19.537Z,55.25
2023-01-21T13:23:33.005Z,54.13
2023-01-21T13:26:12.488Z,56.88
2023-01-21T13:29:08.613Z,63.67
2023-01-21T13:32:11.684Z,58.03
2023-01-21T13:34:57.640Z,56.95
2023-01-21T13:37:33.360Z,61.85
2023-01-21T13:40:28.153Z,58.60
2023-01-21T13:42:57.798Z,60.83
2023-01-21T13:45:39.509Z,55.55
2023-01-21T13:48:30.485Z,53.22
2023-01-21T13:51:12.804Z,55.65
2023-01-21T13:53:39.725Z,58.05
2023-01-21T13:56:06.623Z,57.17
2023-01-21T13:58:47.632Z,48.08
2023-01-21T14:01:47.320Z,54.08
2023-01-21T14:04:28.213Z,57.70
2023-01-21T14:07:09.036Z,60.85
2023-01-21T14:09:46.026Z,50.45
2023-01-21T14:12:40.557Z,49.95
2023-01-21T14:15:25.792Z,47.60
2023-01-21T14:17:55.488Z,52.92
2023-01-21T14:20:44.179Z,45.55
2023-01-21T14:23:28.605Z,49.75
2023-01-21T14:26:13.965Z,51.33
2023-01-21T14:28:55.123Z,45.50
2023-01-21T14:31:27.172Z,48.13
2023-01-21T14:34:00.717Z,45.75
2023-01-21T14:40:26.870Z,45.67
2023-01-21T14:42:55.081Z,46.60
2023-01-21T14:45:25.840Z,47.83
2023-01-21T14:47:53.891Z,46.13
2023-01-21T14:50:42.657Z,45.40
2023-01-21T14:53:18.854Z,42.38
2023-01-21T14:55:45.992Z,45.88
2023-01-21T14:58:31.427Z,46.78
2023-01-21T15:00:58.510Z,45.50
2023-01-21T15:03:30.259Z,42.80
2023-01-21T15:06:09.894Z,48.92
2023-01-21T15:08:47.706Z,42.22
2023-01-21T15:11:21.809Z,46.60
2023-01-21T15:14:26.183Z,42.05
2023-01-21T15:16:53.524Z,45.58
2023-01-21T15:19:20.518Z,42.63
2023-01-21T15:21:59.880Z,43.33
2023-01-21T15:24:39.958Z,40.97
2023-01-21T15:27:19.179Z,38.55
2023-01-21T15:29:55.231Z,41.67
2023-01-21T15:32:53.819Z,45.47
2023-01-21T15:35:37.171Z,39.13
2023-01-21T15:38:13.132Z,42.53
2023-01-21T15:40:54.401Z,38.35
2023-01-21T15:43:40.735Z,38.72
2023-01-21T15:46:10.667Z,40.30
2023-01-21T15:49:05.697Z,43.25
2023-01-21T15:51:51.591Z,39.78
2023-01-21T15:54:25.409Z,42.75
2023-01-21T15:57:24.503Z,39.72
2023-01-21T16:00:17.705Z,42.35
2023-01-21T16:03:12.556Z,45.38
2023-01-21T16:05:42.634Z,46.30
2023-01-21T16:08:23.126Z,51.40
2023-01-21T16:11:19.278Z,46.25
2023-01-21T16:14:13.949Z,41.55
2023-01-21T16:17:00.608Z,43.33
2023-01-21T16:19:39.190Z,46.20
2023-01-21T16:22:10.147Z,48.47
2023-01-21T16:24:47.608Z,44.70
2023-01-21T16:27:24.458Z,44.60
2023-01-21T16:30:12.032Z,47.92
2023-01-21T16:32:39.408Z,41.70
2023-01-21T16:35:06.949Z,40.88
2023-01-21T16:37:34.301Z,40.95
2023-01-21T16:40:29.885Z,42.22
2023-01-21T16:43:29.037Z,46.55
2023-01-21T16:46:01.817Z,40.42
2023-01-21T16:48:31.613Z,40.85
2023-01-21T16:50:59.968Z,39.83
2023-01-21T16:53:27.777Z,40.45
2023-01-21T16:55:57.313Z,41.90
2023-01-21T16:58:31.472Z,45.65
2023-01-21T17:01:12.125Z,44.33
2023-01-21T17:03:39.494Z,41.75
2023-01-21T17:06:12.423Z,42.47
2023-01-21T17:08:40.547Z,41.67
2023-01-21T17:11:10.571Z,41.63
2023-01-21T17:13:43.248Z,43.63
2023-01-21T17:16:31.852Z,39.60
2023-01-21T17:19:09.380Z,36.63
2023-01-21T17:21:47.186Z,43.75
2023-01-21T17:24:25.463Z,38.88
2023-01-21T17:27:02.795Z,43.38
2023-01-21T17:29:31.994Z,42.78
2023-01-21T17:32:04.148Z,46.92
2023-01-21T17:34:36.534Z,44.22
2023-01-21T17:37:23.948Z,46.85
2023-01-21T17:39:54.814Z,45.20
2023-01-21T17:42:25.445Z,44.97
2023-01-21T17:44:55.527Z,45.53
2023-01-21T17:47:26.658Z,42.17
2023-01-21T17:50:00.423Z,43.80
2023-01-21T17:52:28.571Z,42.90
2023-01-21T17:55:37.994Z,46.97
2023-01-21T17:58:31.551Z,43.58
2023-01-21T18:01:01.917Z,42.92
2023-01-21T18:03:29.204Z,40.80
2023-01-21T18:05:56.959Z,42.35
2023-01-21T18:08:24.708Z,49.45
2023-01-21T18:10:51.707Z,44.70
2023-01-21T18:13:20.995Z,45.75
2023-01-21T18:15:54.363Z,44.13
2023-01-21T18:18:27.038Z,45.97
2023-01-21T18:20:54.286Z,47.85
2023-01-21T18:23:21.416Z,46.22
2023-01-21T18:25:53.771Z,41.17
2023-01-21T18:28:26.263Z,44.85
2023-01-21T18:30:57.725Z,44.05
2023-01-21T18:33:25.192Z,47.88
2023-01-21T18:35:53.030Z,44.33
2023-01-21T18:38:27.340Z,46.75
2023-01-21T18:40:55.783Z,44.88
2023-01-21T18:43:23.953Z,47.22
2023-01-21T18:45:53.276Z,47.58
2023-01-21T18:48:27.650Z,43.72
2023-01-21T18:50:54.721Z,46.08
2023-01-21T18:53:21.922Z,45.15
2023-01-21T18:55:51.029Z,49.22
2023-01-21T18:58:18.139Z,42.22
2023-01-21T19:00:45.170Z,42.40
2023-01-21T19:03:14.360Z,46.25
2023-01-21T19:05:44.134Z,44.65
2023-01-21T19:08:15.177Z,42.20
2023-01-21T19:10:42.498Z,41.63
2023-01-21T19:13:10.555Z,45.78
2023-01-21T19:15:38.256Z,43.20
2023-01-21T19:18:13.106Z,44.42
2023-01-21T19:20:41.791Z,43.08
2023-01-21T19:23:15.761Z,44.63
2023-01-21T19:25:48.786Z,46.38
2023-01-21T19:28:16.016Z,45.58
2023-01-21T19:30:45.351Z,43.97
2023-01-21T19:33:12.715Z,48.88
2023-01-21T19:35:43.838Z,48.10
2023-01-21T19:38:19.637Z,46.08
2023-01-21T19:40:47.203Z,43.80
2023-01-21T19:43:15.910Z,42.05
2023-01-21T19:45:43.778Z,46.92
2023-01-21T19:48:14.220Z,48.67
2023-01-21T19:50:42.099Z,42.63
2023-01-21T19:53:17.422Z,47.58
2023-01-21T19:55:46.539Z,41.75
2023-01-21T19:58:22.817Z,47.67
2023-01-21T20:00:53.703Z,42.20
2023-01-21T20:03:23.735Z,45.38
2023-01-21T20:05:59.548Z,43.75
2023-01-21T20:08:28.775Z,47.75
2023-01-21T20:10:56.358Z,51.47
2023-01-21T20:13:24.001Z,47.90
2023-01-21T20:15:52.572Z,46.97
2023-01-21T20:18:25.138Z,49.03
2023-01-21T20:20:53.347Z,46.45
2023-01-21T20:23:22.247Z,44.47
2023-01-21T20:25:53.595Z,53.15
2023-01-21T20:28:39.905Z,46.55
2023-01-21T20:31:08.226Z,44.40
2023-01-21T20:33:36.222Z,44.67
2023-01-21T20:36:06.329Z,48.90
2023-01-21T20:38:35.973Z,41.75
2023-01-21T20:41:04.867Z,43.40
2023-01-21T20:43:32.339Z,44.13
2023-01-21T20:46:03.221Z,43.78
2023-01-21T20:48:42.821Z,47.13
2023-01-21T20:51:10.343Z,50.35
2023-01-21T20:53:37.930Z,44.85
2023-01-21T20:56:21.475Z,42.00
2023-01-21T20:58:49.081Z,47.22
2023-01-21T21:01:18.149Z,44.70
2023-01-21T21:03:45.606Z,39.33
2023-01-21T21:06:15.127Z,44.40
2023-01-21T21:08:42.669Z,41.90
2023-01-21T21:11:10.474Z,43.55
2023-01-21T21:13:37.677Z,42.97
2023-01-21T21:16:19.589Z,41.85
2023-01-21T21:18:47.012Z,44.05
2023-01-21T21:21:15.262Z,38.85
2023-01-21T21:23:46.554Z,42.60
2023-01-21T21:26:19.948Z,45.50
2023-01-21T21:28:47.453Z,42.78
2023-01-21T21:31:16.200Z,42.40
2023-01-21T21:33:44.283Z,45.25
2023-01-21T21:36:16.182Z,46.35
2023-01-21T21:38:44.038Z,49.10
2023-01-21T21:41:40.606Z,49.60
2023-01-21T21:44:09.170Z,44.53
2023-01-21T21:46:56.009Z,41.58
2023-01-21T21:49:23.483Z,42.72
2023-01-21T21:51:50.544Z,43.65
2023-01-21T21:54:18.746Z,43.78
2023-01-21T21:56:46.334Z,40.45
2023-01-21T21:59:14.136Z,44.70
2023-01-21T22:01:43.310Z,42.50
2023-01-21T22:04:11.250Z,46.60
2023-01-21T22:06:38.723Z,43.67
2023-01-21T22:09:06.739Z,40.17
2023-01-21T22:11:34.034Z,40.00
2023-01-21T22:14:04.537Z,45.08
2023-01-21T22:16:32.880Z,44.00
2023-01-21T22:19:00.452Z,39.10
2023-01-21T22:21:31.909Z,41.72
2023-01-21T22:23:59.689Z,40.33
2023-01-21T22:26:28.214Z,42.05
2023-01-21T22:28:55.171Z,42.33
2023-01-21T22:31:24.164Z,40.38
2023-01-21T22:33:51.941Z,40.38
2023-01-21T22:36:24.124Z,39.47
2023-01-21T22:38:51.997Z,40.35
2023-01-21T22:41:21.084Z,38.42
2023-01-21T22:43:49.446Z,36.95
2023-01-21T22:46:22.252Z,37.22
2023-01-21T22:48:49.791Z,34.65
2023-01-21T22:51:19.380Z,37.60
2023-01-21T22:53:46.622Z,35.55
2023-01-21T22:56:16.058Z,36.55
2023-01-21T22:58:43.467Z,34.67
2023-01-21T23:01:24.699Z,32.33
2023-01-21T23:03:51.758Z,31.23
2023-01-21T23:06:19.575Z,36.95
2023-01-21T23:08:47.102Z,31.98
2023-01-21T23:11:16.054Z,33.10
2023-01-21T23:13:43.635Z,38.45
2023-01-21T23:16:14.363Z,39.97
2023-01-21T23:18:42.134Z,40.00
2023-01-21T23:21:21.021Z,43.83
2023-01-21T23:23:49.099Z,37.83
2023-01-21T23:26:16.424Z,38.58
2023-01-21T23:28:43.312Z,38.08
2023-01-21T23:31:16.665Z,37.85
2023-01-21T23:33:44.080Z,40.45
2023-01-21T23:36:13.598Z,39.58
2023-01-21T23:38:41.823Z,35.70
2023-01-21T23:41:11.301Z,36.25
2023-01-21T23:43:38.979Z,38.55
2023-01-21T23:46:07.826Z,39.72
2023-01-21T23:48:34.958Z,38.75
2023-01-21T23:51:07.150Z,34.53
2023-01-21T23:53:34.743Z,40.58
2023-01-21T23:56:13.006Z,36.03
2023-01-21T23:58:39.971Z,41.30
